Flight Track Log - Related Links

Times and Time Zones

All times are in EDT time to prevent confusion due to time zone crossing. See the SKW6534 flight status page for this flight to view local times or setup timezone preferences in your user account.

Time Position Orientation Groundspeed Altitude Reporting Facility
EDT Latitude Longitude Course Direction KTS MPH feet Rate Location/Type
Sat 03:28:56 PM 43.5350 -112.1475 321° Northwest 249 287 7,900  Level Salt Lake Center
Sat 03:29:57 PM 43.5600 -112.0647 67° East 268 308 9,800 1,902 Climbing Salt Lake Center
Sat 03:30:00 PM 43.3093 -111.6865 127° Southeast  Level FlightAware Approximate
Sat 03:30:59 PM 43.4847 -111.9911 145° Southeast 293 337 11,800  Level Salt Lake Center
Sat 03:31:00 PM 43.2453 -111.5690 127° Southeast  Level FlightAware Approximate
Sat 03:32:00 PM 43.1813 -111.4517 127° Southeast  Level FlightAware Approximate
Sat 03:32:00 PM 43.4281 -111.8939 129° Southeast 332 382 13,900  Level Salt Lake Center
Sat 03:33:00 PM 43.1173 -111.3345 127° Southeast  Level FlightAware Approximate
Sat 03:33:02 PM 43.3653 -111.7753 126° Southeast 345 397 15,900  Level Salt Lake Center
Sat 03:34:03 PM 43.3081 -111.6706 127° Southeast 352 405 17,600 1,366 Climbing Salt Lake Center
Sat 03:35:05 PM 43.2467 -111.5583 127° Southeast 371 427 18,700 1,317 Climbing Salt Lake Center
Sat 03:36:06 PM 43.1733 -111.4239 127° Southeast 393 452 20,300 1,463 Climbing Salt Lake Center
Sat 03:37:08 PM 43.1097 -111.3053 126° Southeast 402 463 21,700 1,366 Climbing Salt Lake Center
Sat 03:38:09 PM 43.0350 -111.1678 127° Southeast 404 465 23,100 1,279 Climbing Salt Lake Center
Sat 03:39:10 PM 42.9694 -111.0492 127° Southeast 406 467 24,300 1,073 Climbing Salt Lake Center
Sat 03:40:12 PM 42.9031 -110.9278 127° Southeast 413 475 25,300 1,024 Climbing Salt Lake Center
Sat 03:41:13 PM 42.8247 -110.7864 127° Southeast 418 481 26,400 976 Climbing Salt Lake Center
Sat 03:42:15 PM 42.7578 -110.6653 127° Southeast 418 481 27,300 780 Climbing Salt Lake Center
Sat 03:43:16 PM 42.6758 -110.5222 128° Southeast 426 490 28,000 634 Climbing Salt Lake Center
Sat 03:44:18 PM 42.6050 -110.3944 127° Southeast 437 503 28,600 634 Climbing Salt Lake Center
Sat 03:45:19 PM 42.5206 -110.2439 127° Southeast 446 513 29,300 639 Climbing Salt Lake Center
Sat 03:46:20 PM 42.4467 -110.1136 128° Southeast 452 520 29,900 585 Climbing Salt Lake Center
Sat 03:47:22 PM 42.3731 -109.9836 127° Southeast 454 522 30,500 537 Climbing Salt Lake Center
Sat 03:48:23 PM 42.2875 -109.8331 127° Southeast 452 520 31,000 246 Climbing Salt Lake Center
Sat 03:49:24 PM 42.2128 -109.7006 127° Southeast 460 529 31,000  Level Salt Lake Center
Sat 03:50:26 PM 42.1233 -109.5444 128° Southeast 469 540 31,000  Level Salt Lake Center
Sat 03:51:27 PM 42.0458 -109.4100 128° Southeast 473 544 31,000  Level Salt Lake Center
Sat 03:52:28 PM 41.9681 -109.2750 128° Southeast 475 547 31,000  Level Salt Lake Center
Sat 03:53:30 PM 41.8758 -109.1175 128° Southeast 478 550 31,000  Level Salt Lake Center
Sat 03:54:31 PM 41.7978 -108.9828 128° Southeast 477 549 31,000  Level Salt Lake Center
Sat 03:55:32 PM 41.7183 -108.8492 129° Southeast 475 547 31,000  Level Salt Lake Center
Sat 03:56:34 PM 41.6261 -108.6917 128° Southeast 477 549 31,000  Level Salt Lake Center
Sat 03:57:35 PM 41.5517 -108.5542 126° Southeast 476 548 31,000  Level Salt Lake Center
Sat 03:58:36 PM 41.4978 -108.4019 115° Southeast 475 547 31,000  Level Salt Lake Center
Sat 03:59:38 PM 41.4339 -108.2258 116° Southeast 472 543 31,000  Level Salt Lake Center
Sat 04:00:39 PM 41.3786 -108.0767 116° Southeast 471 542 31,000  Level Salt Lake Center
Sat 04:01:40 PM 41.3133 -107.9000 116° Southeast 476 548 31,000  Level Salt Lake Center
Sat 04:02:31 PM 41.2672 -107.7758 116° Southeast 469 540 31,000  Level Denver Center
Sat 04:03:33 PM 41.2111 -107.6297 117° Southeast 464 534 31,000  Level Denver Center
Sat 04:04:35 PM 41.1478 -107.4589 116° Southeast 462 532 31,000  Level Denver Center
Sat 04:05:36 PM 41.0917 -107.3125 117° Southeast 463 533 31,000  Level Denver Center
Sat 04:06:38 PM 41.0269 -107.1419 117° Southeast 464 534 31,000  Level Denver Center
Sat 04:07:40 PM 40.9719 -106.9972 117° Southeast 461 531 31,000  Level Denver Center
Sat 04:08:41 PM 40.9161 -106.8525 117° Southeast 462 532 31,000  Level Denver Center
Sat 04:09:43 PM 40.8506 -106.6833 117° Southeast 463 533 31,000  Level Denver Center
Sat 04:10:45 PM 40.7944 -106.5386 117° Southeast 462 532 31,000  Level Denver Center
Sat 04:11:46 PM 40.7336 -106.3836 117° Southeast 462 532 31,000 -195 Level Denver Center
Sat 04:12:48 PM 40.6675 -106.2153 117° Southeast 462 532 30,600 -1,210 Descending Denver Center
Sat 04:13:50 PM 40.6061 -106.0578 117° Southeast 466 536 28,500 -2,000 Descending Denver Center
Sat 04:14:51 PM 40.5453 -105.9072 118° Southeast 462 532 26,500 -1,902 Descending Denver Center
Sat 04:15:53 PM 40.4869 -105.7606 118° Southeast 453 521 24,600 -1,645 Descending Denver Center
Sat 04:16:55 PM 40.4306 -105.6197 118° Southeast 435 501 23,100 -1,463 Descending Denver Center
Sat 04:17:56 PM 40.3794 -105.4953 118° Southeast 390 449 21,600 -1,561 Descending Denver Center
Sat 04:18:58 PM 40.3189 -105.3767 124° Southeast 360 414 19,900 -1,548 Descending Denver Center
Sat 04:20:00 PM 40.2578 -105.2828 130° Southeast 342 394 18,400 -1,463 Descending Denver Center
Sat 04:21:01 PM 40.1969 -105.1861 129° Southeast 345 397 16,900 -1,220 Descending Denver Center
Sat 04:22:03 PM 40.1469 -105.1092 130° Southeast 332 382 15,900 -1,210 Descending Denver Center
Sat 04:23:05 PM 40.0728 -104.9936 130° Southeast 336 387 14,400 -1,306 Descending Denver Center
Sat 04:24:07 PM 40.0153 -104.9044 130° Southeast 321 369 13,200 -1,122 Descending Denver Center
Sat 04:25:08 PM 39.9517 -104.8147 133° Southeast 313 360 12,100 -1,024 Descending Denver Center
Sat 04:26:10 PM 39.8703 -104.8075 176° South 301 346 11,100 -532 Descending Denver Center
Sat 04:27:12 PM 39.7881 -104.8097 181° South 272 313 11,000 -194 Descending Denver Center
Sat 04:28:14 PM 39.7183 -104.8111 181° South 253 291 10,700 -780 Descending Denver Center
Sat 04:29:15 PM 39.6450 -104.8119 181° South 243 280 9,400 -829 Descending Denver Center
Sat 04:30:17 PM 39.5947 -104.7736 150° Southeast 228 262 9,000 -484 Descending Denver Center
Sat 04:31:19 PM 39.6342 -104.7147 49° Northeast 221 254 8,400 -581 Descending Denver Center

Login

Don't have an account? Register now (free) for customized features, flight alerts, and more!